Time;durP1;ratioP1;P1;durP2;ratioP2;P2;SDS_P1;SDS_P2;PMS_P1;PMS_P2;Temp;Humidity;BMP_temperature;BMP_pressure;BME280_temperature;BME280_humidity;BME280_pressure;Samples;Min_cycle;Max_cycle;Signal;HPM_P1;HPM_P2
2023/02/05 00:01:28;;;;;;;35.10;15.05;;;;;;;6.44;100.00;102987.06;5017949;28;20058;-78
2023/02/05 00:03:54;;;;;;;38.10;15.18;;;;;;;6.43;100.00;102981.91;5017981;28;20532;-78
2023/02/05 00:06:25;;;;;;;42.08;14.73;;;;;;;6.41;100.00;102978.53;5019631;28;20057;-77
2023/02/05 00:08:52;;;;;;;39.15;15.65;;;;;;;6.44;100.00;102975.81;5012580;28;20050;-79
2023/02/05 00:11:19;;;;;;;37.83;15.52;;;;;;;6.44;100.00;102973.19;5017276;28;20054;-79
2023/02/05 00:13:45;;;;;;;36.88;15.90;;;;;;;6.43;100.00;102961.94;5015600;28;20140;-78
2023/02/05 00:16:14;;;;;;;35.42;15.32;;;;;;;6.46;100.00;102980.03;5015232;28;20136;-78
2023/02/05 00:18:41;;;;;;;40.35;15.60;;;;;;;6.46;100.00;102967.00;5016399;28;20081;-77
2023/02/05 00:21:08;;;;;;;36.92;15.30;;;;;;;6.45;100.00;102967.09;5016319;28;20137;-78
2023/02/05 00:23:37;;;;;;;38.58;15.75;;;;;;;6.40;100.00;102962.09;5016208;28;20133;-78
2023/02/05 00:26:05;;;;;;;40.85;15.30;;;;;;;6.34;100.00;102946.78;5017036;28;20136;-78
2023/02/05 00:28:32;;;;;;;35.00;15.25;;;;;;;6.31;100.00;102937.38;5016574;28;20072;-78
2023/02/05 00:30:59;;;;;;;36.63;15.18;;;;;;;6.22;100.00;102937.78;5016804;28;20046;-79
2023/02/05 00:33:26;;;;;;;41.22;16.15;;;;;;;6.29;100.00;102938.34;5017890;28;20057;-79
2023/02/05 00:35:52;;;;;;;39.47;15.90;;;;;;;6.31;100.00;102931.31;5016897;28;20109;-79
2023/02/05 00:38:19;;;;;;;34.75;14.30;;;;;;;6.29;100.00;102933.16;5016501;28;20112;-80
2023/02/05 00:40:47;;;;;;;39.25;16.45;;;;;;;6.26;100.00;102939.34;5017056;28;20089;-78
2023/02/05 00:43:13;;;;;;;36.70;14.68;;;;;;;6.25;100.00;102939.41;5018101;28;20073;-79
2023/02/05 00:45:40;;;;;;;31.35;14.52;;;;;;;6.22;100.00;102932.59;5016698;28;20559;-78
2023/02/05 00:48:07;;;;;;;28.92;14.25;;;;;;;6.17;100.00;102929.34;5017792;28;20046;-81
2023/02/05 00:50:34;;;;;;;33.25;14.23;;;;;;;6.16;100.00;102930.28;5017242;28;20138;-79
2023/02/05 00:53:01;;;;;;;37.47;14.13;;;;;;;6.13;100.00;102930.44;5013967;28;20137;-76
2023/02/05 00:55:27;;;;;;;32.85;14.68;;;;;;;6.11;100.00;102927.06;5014333;28;20152;-79
2023/02/05 00:57:55;;;;;;;36.08;15.00;;;;;;;6.12;100.00;102920.13;5016300;28;20046;-78
2023/02/05 01:00:22;;;;;;;38.00;14.60;;;;;;;6.10;100.00;102912.38;5017312;28;20113;-79
2023/02/05 01:02:49;;;;;;;38.08;14.57;;;;;;;6.09;100.00;102909.88;5017533;28;20119;-78
2023/02/05 01:05:16;;;;;;;35.15;14.80;;;;;;;6.16;100.00;102899.06;5015424;28;20133;-78
2023/02/05 01:07:42;;;;;;;34.35;14.15;;;;;;;6.15;100.00;102905.19;5016472;28;20133;-78
2023/02/05 01:10:12;;;;;;;35.63;15.15;;;;;;;6.18;100.00;102910.25;5016474;28;20554;-78
2023/02/05 01:12:38;;;;;;;39.78;15.43;;;;;;;6.12;100.00;102915.75;5015644;28;20049;-78
2023/02/05 01:15:08;;;;;;;44.60;15.80;;;;;;;6.09;100.00;102913.31;5014390;28;20476;-76
2023/02/05 01:17:35;;;;;;;34.33;15.65;;;;;;;6.11;100.00;102914.06;5011467;28;20137;-79
2023/02/05 01:20:01;;;;;;;37.63;15.32;;;;;;;6.08;100.00;102914.22;5009674;28;20097;-77
2023/02/05 01:22:28;;;;;;;35.05;15.18;;;;;;;6.09;100.00;102904.66;5017015;28;20083;-79
2023/02/05 01:24:55;;;;;;;42.10;14.60;;;;;;;6.12;100.00;102910.56;5015944;28;20096;-77
2023/02/05 01:27:23;;;;;;;37.45;15.35;;;;;;;6.18;100.00;102901.59;5007942;28;20115;-79
2023/02/05 01:29:49;;;;;;;37.00;15.07;;;;;;;6.13;100.00;102896.66;5016554;28;20041;-78
2023/02/05 01:32:18;;;;;;;39.30;15.10;;;;;;;6.09;100.00;102884.72;5014791;28;20157;-76
2023/02/05 01:34:44;;;;;;;41.63;14.82;;;;;;;6.11;100.00;102880.28;5014830;28;20718;-76
2023/02/05 01:37:11;;;;;;;32.92;14.45;;;;;;;6.08;100.00;102883.03;5013791;28;20486;-77
2023/02/05 01:39:38;;;;;;;29.88;13.55;;;;;;;6.12;100.00;102875.94;5015150;28;20138;-78
2023/02/05 01:42:15;;;;;;;41.45;16.20;;;;;;;5.83;100.00;102872.03;5014600;28;20137;-77
2023/02/05 01:44:41;;;;;;;33.90;16.70;;;;;;;5.73;100.00;102858.63;5014813;28;20086;-79
2023/02/05 01:47:08;;;;;;;34.33;16.70;;;;;;;5.69;100.00;102849.28;5014012;28;20133;-77
2023/02/05 01:49:41;;;;;;;36.75;15.82;;;;;;;5.70;100.00;102852.72;5013359;28;20042;-80
2023/02/05 01:52:12;;;;;;;42.70;16.33;;;;;;;5.77;100.00;102856.72;5006363;28;20049;-79
2023/02/05 01:54:43;;;;;;;34.15;15.70;;;;;;;5.77;100.00;102872.31;5014149;28;20089;-79
2023/02/05 01:57:14;;;;;;;44.28;15.55;;;;;;;5.77;100.00;102886.16;5017083;28;20092;-78
2023/02/05 01:59:41;;;;;;;46.33;16.95;;;;;;;5.87;100.00;102889.19;5016199;28;20445;-78
2023/02/05 02:02:08;;;;;;;37.85;16.00;;;;;;;5.82;100.00;102876.41;5015118;28;20054;-78
2023/02/05 02:04:39;;;;;;;44.47;16.33;;;;;;;5.85;100.00;102876.25;5021394;28;20084;-78
2023/02/05 02:07:07;;;;;;;41.70;15.27;;;;;;;5.85;100.00;102875.41;5022365;28;20057;-76
2023/02/05 02:09:34;;;;;;;38.53;15.07;;;;;;;5.82;100.00;102871.19;5016558;28;20077;-78
2023/02/05 02:12:02;;;;;;;35.08;16.30;;;;;;;5.82;100.00;102871.19;5025611;28;20054;-77
2023/02/05 02:14:31;;;;;;;44.42;17.00;;;;;;;5.87;100.00;102868.38;5024769;28;20073;-78
2023/02/05 02:17:00;;;;;;;34.97;15.90;;;;;;;5.83;100.00;102870.28;5018227;28;20133;-78
2023/02/05 02:19:32;;;;;;;42.13;16.75;;;;;;;5.81;100.00;102860.88;5017187;28;20420;-78
2023/02/05 02:22:27;;;;;;;41.95;17.02;;;;;;;5.82;100.00;102867.75;5018044;28;20084;-78
2023/02/05 02:25:17;;;;;;;41.72;16.48;;;;;;;5.82;100.00;102875.56;5018905;28;20124;-77
2023/02/05 02:27:49;;;;;;;46.70;16.92;;;;;;;5.86;100.00;102887.50;5018804;28;20183;-77
2023/02/05 02:30:23;;;;;;;40.47;16.70;;;;;;;5.85;100.00;102897.03;5017864;28;20158;-77
2023/02/05 02:33:00;;;;;;;37.75;17.58;;;;;;;5.79;100.00;102906.88;5010248;28;20548;-77
2023/02/05 02:35:32;;;;;;;41.28;18.60;;;;;;;5.78;100.00;102916.41;5018105;28;20601;-77
2023/02/05 02:38:06;;;;;;;41.45;16.98;;;;;;;5.81;100.00;102907.63;5017180;28;20496;-78
2023/02/05 02:40:38;;;;;;;42.78;18.42;;;;;;;5.74;100.00;102911.44;5017889;28;20081;-78
2023/02/05 02:43:10;;;;;;;44.72;19.02;;;;;;;5.76;100.00;102920.00;5016969;28;20057;-79
2023/02/05 02:45:45;;;;;;;43.45;17.80;;;;;;;5.75;100.00;102907.91;5016011;28;20072;-78
2023/02/05 02:48:15;;;;;;;47.00;19.35;;;;;;;5.74;100.00;102898.44;5016239;28;20060;-77
2023/02/05 02:50:45;;;;;;;42.17;19.42;;;;;;;5.73;100.00;102907.13;5016962;28;20053;-77
2023/02/05 02:53:17;;;;;;;44.95;19.15;;;;;;;5.74;100.00;102906.22;5017213;28;20130;-77
2023/02/05 02:55:45;;;;;;;52.42;20.08;;;;;;;5.83;100.00;102900.63;5017184;28;20109;-77
2023/02/05 02:58:18;;;;;;;58.83;22.30;;;;;;;5.79;100.00;102904.28;5016285;28;20128;-77
2023/02/05 03:00:45;;;;;;;50.92;22.50;;;;;;;5.83;100.00;102900.63;5016296;28;20589;-77
2023/02/05 03:03:15;;;;;;;60.60;24.08;;;;;;;5.85;100.00;102891.00;5018638;28;20057;-78
2023/02/05 03:05:43;;;;;;;54.50;23.13;;;;;;;5.87;100.00;102894.38;5015640;28;20069;-78
2023/02/05 03:08:14;;;;;;;64.18;25.70;;;;;;;5.91;100.00;102896.78;5017197;28;20129;-78
2023/02/05 03:10:45;;;;;;;83.20;35.88;;;;;;;5.90;100.00;102884.72;5017497;28;20567;-78
2023/02/05 03:13:14;;;;;;;65.57;27.05;;;;;;;5.91;100.00;102870.81;5010571;28;20093;-78
2023/02/05 03:15:43;;;;;;;63.28;25.85;;;;;;;5.96;100.00;102876.63;5017166;28;20049;-78
2023/02/05 03:18:10;;;;;;;62.03;26.98;;;;;;;5.98;100.00;102876.56;5017835;28;20077;-78
2023/02/05 03:20:42;;;;;;;66.43;27.02;;;;;;;5.96;100.00;102863.66;5018162;28;20085;-78
2023/02/05 03:23:09;;;;;;;67.82;26.88;;;;;;;6.00;100.00;102864.34;5019188;28;20077;-77
2023/02/05 03:25:36;;;;;;;69.07;26.00;;;;;;;6.05;100.00;102856.34;5019772;28;20544;-78
2023/02/05 03:28:03;;;;;;;73.57;25.35;;;;;;;6.14;100.00;102861.09;5017619;28;20054;-78
2023/02/05 03:30:39;;;;;;;68.80;28.20;;;;;;;6.17;100.00;102851.38;5015576;28;20056;-77
2023/02/05 03:33:16;;;;;;;66.70;27.08;;;;;;;6.11;100.00;102851.69;5015681;28;20077;-77
2023/02/05 03:35:48;;;;;;;59.92;26.98;;;;;;;6.11;100.00;102856.88;5016232;28;20078;-79
2023/02/05 03:38:33;;;;;;;72.88;27.95;;;;;;;6.09;100.00;102853.53;5015158;28;20124;-78
2023/02/05 03:41:14;;;;;;;57.17;26.33;;;;;;;6.12;100.00;102849.94;5016079;28;20054;-78
2023/02/05 03:43:50;;;;;;;59.28;25.00;;;;;;;6.10;100.00;102849.16;5015765;28;20073;-77
2023/02/05 03:46:28;;;;;;;60.35;25.25;;;;;;;6.11;100.00;102849.09;5015119;28;20046;-78
2023/02/05 03:49:07;;;;;;;60.47;24.77;;;;;;;6.15;100.00;102854.97;5015941;28;20136;-78
2023/02/05 03:51:39;;;;;;;63.13;26.25;;;;;;;6.18;100.00;102850.47;5018415;28;20078;-78
2023/02/05 03:54:13;;;;;;;58.15;23.73;;;;;;;6.24;100.00;102837.16;5017910;28;20085;-76
2023/02/05 03:56:50;;;;;;;61.13;25.08;;;;;;;6.31;100.00;102833.34;5017416;28;20100;-79
2023/02/05 03:59:18;;;;;;;58.50;24.95;;;;;;;6.21;100.00;102833.88;5018139;28;20488;-79
2023/02/05 04:01:46;;;;;;;67.20;26.25;;;;;;;6.20;100.00;102835.63;5017337;28;20082;-79
2023/02/05 04:04:14;;;;;;;59.95;24.63;;;;;;;6.24;100.00;102846.72;5017871;28;20050;-78
2023/02/05 04:06:40;;;;;;;54.58;24.30;;;;;;;6.18;100.00;102847.84;5017476;28;20084;-78
2023/02/05 04:09:07;;;;;;;54.92;24.00;;;;;;;6.17;100.00;102848.78;5018030;28;20412;-78
2023/02/05 04:11:34;;;;;;;56.30;24.38;;;;;;;6.16;100.00;102844.47;5019863;28;20123;-79
2023/02/05 04:14:00;;;;;;;55.22;24.92;;;;;;;6.16;100.00;102849.69;5019616;28;20046;-77
2023/02/05 04:16:27;;;;;;;54.90;24.00;;;;;;;6.09;100.00;102858.72;5012236;28;20110;-78
2023/02/05 04:18:55;;;;;;;55.15;25.05;;;;;;;6.08;100.00;102861.38;5020771;28;20424;-79
2023/02/05 04:21:22;;;;;;;53.33;24.38;;;;;;;6.11;100.00;102853.44;5019920;28;20073;-78
2023/02/05 04:23:48;;;;;;;55.70;23.73;;;;;;;6.10;100.00;102860.41;5010492;28;20057;-78
2023/02/05 04:26:15;;;;;;;55.03;23.95;;;;;;;6.07;100.00;102863.16;5014554;28;20496;-78
2023/02/05 04:28:42;;;;;;;60.15;24.52;;;;;;;6.13;100.00;102859.41;5020996;28;20129;-79
2023/02/05 04:31:10;;;;;;;54.65;23.95;;;;;;;6.14;100.00;102854.16;5019253;28;20084;-79
2023/02/05 04:33:37;;;;;;;51.97;25.13;;;;;;;6.14;100.00;102856.75;5019533;28;20060;-78
2023/02/05 04:36:06;;;;;;;52.33;24.33;;;;;;;6.14;100.00;102856.75;5015113;28;20054;-78
2023/02/05 04:38:32;;;;;;;66.80;26.35;;;;;;;6.15;100.00;102867.94;5020273;28;20085;-78
2023/02/05 04:40:59;;;;;;;57.97;27.52;;;;;;;6.29;100.00;102869.00;5020293;28;20060;-78
2023/02/05 04:43:26;;;;;;;63.90;28.50;;;;;;;6.27;100.00;102859.56;5019653;28;20088;-78
2023/02/05 04:45:52;;;;;;;63.28;28.15;;;;;;;6.40;100.00;102872.84;5019755;28;20052;-79
2023/02/05 04:48:20;;;;;;;68.85;31.42;;;;;;;6.41;100.00;102882.31;5018680;28;20461;-78
2023/02/05 04:50:46;;;;;;;64.75;30.55;;;;;;;6.42;100.00;102876.22;5018563;28;20125;-78
2023/02/05 04:53:17;;;;;;;71.10;31.85;;;;;;;6.40;100.00;102878.03;5017504;28;20512;-77
2023/02/05 04:55:44;;;;;;;73.82;31.63;;;;;;;6.46;100.00;102877.75;5015061;28;20128;-78
2023/02/05 04:58:10;;;;;;;80.18;34.28;;;;;;;6.46;100.00;102875.97;5021347;28;20133;-78
2023/02/05 05:00:38;;;;;;;78.82;33.95;;;;;;;6.46;100.00;102877.75;5028902;28;20574;-78
2023/02/05 05:03:05;;;;;;;83.80;33.67;;;;;;;6.41;100.00;102869.31;5024837;28;20183;-79
2023/02/05 05:05:32;;;;;;;87.28;34.97;;;;;;;6.40;100.00;102860.69;5017639;28;20133;-78
2023/02/05 05:07:59;;;;;;;76.60;34.60;;;;;;;6.47;100.00;102858.63;5015300;28;20050;-78
2023/02/05 05:10:28;;;;;;;92.22;34.95;;;;;;;6.46;100.00;102862.13;5014993;28;20085;-78
2023/02/05 05:12:54;;;;;;;77.95;34.75;;;;;;;6.44;100.00;102858.78;5015381;28;20141;-78
2023/02/05 05:15:21;;;;;;;85.60;36.78;;;;;;;6.38;100.00;102872.91;5016035;28;20125;-78
2023/02/05 05:17:47;;;;;;;83.93;34.90;;;;;;;6.39;100.00;102879.78;5016811;28;20064;-79
2023/02/05 05:20:14;;;;;;;86.78;34.80;;;;;;;6.37;100.00;102870.38;5018447;28;20476;-78
2023/02/05 05:22:41;;;;;;;86.00;36.40;;;;;;;6.38;100.00;102872.06;5027941;28;20078;-77
2023/02/05 05:25:07;;;;;;;80.95;32.45;;;;;;;6.32;100.00;102861.03;5018882;28;20078;-78
2023/02/05 05:27:35;;;;;;;85.03;34.15;;;;;;;6.27;100.00;102856.97;5008842;28;20081;-78
2023/02/05 05:30:02;;;;;;;81.28;33.38;;;;;;;6.22;100.00;102853.75;5019106;28;20148;-79
2023/02/05 05:32:28;;;;;;;82.68;33.15;;;;;;;6.19;100.00;102849.53;5020038;28;20141;-78
2023/02/05 05:34:56;;;;;;;79.45;33.60;;;;;;;6.23;100.00;102858.88;5014425;28;20049;-79
2023/02/05 05:37:22;;;;;;;77.57;32.47;;;;;;;6.27;100.00;102852.63;5013561;28;20508;-77
2023/02/05 05:45:18;;;;;;;72.28;30.40;;;;;;;6.30;100.00;102846.44;5012814;28;20069;-79
2023/02/05 05:47:45;;;;;;;73.85;29.92;;;;;;;6.24;100.00;102855.38;5013957;28;20060;-77
2023/02/05 05:50:11;;;;;;;66.22;29.83;;;;;;;6.25;100.00;102848.41;5015824;28;20073;-79
2023/02/05 05:52:38;;;;;;;69.03;27.13;;;;;;;6.28;100.00;102853.47;5018279;28;20133;-79
2023/02/05 05:55:05;;;;;;;62.28;27.52;;;;;;;6.25;100.00;102851.84;5015967;28;20490;-78
2023/02/05 05:57:32;;;;;;;60.38;26.88;;;;;;;6.27;100.00;102852.63;5017605;28;20132;-78
2023/02/05 05:59:58;;;;;;;63.88;25.73;;;;;;;6.29;100.00;102853.38;5018554;28;20113;-78
2023/02/05 06:02:26;;;;;;;65.43;27.42;;;;;;;6.25;100.00;102857.06;5017810;28;20137;-78
2023/02/05 06:04:53;;;;;;;64.78;26.80;;;;;;;6.15;100.00;102852.34;5017004;28;20060;-78
2023/02/05 06:07:19;;;;;;;60.65;26.55;;;;;;;6.17;100.00;102842.72;5016278;28;20109;-78
2023/02/05 06:09:46;;;;;;;66.18;27.85;;;;;;;6.19;100.00;102853.91;5016857;28;20061;-77
2023/02/05 06:12:12;;;;;;;66.10;27.67;;;;;;;6.20;100.00;102850.38;5018672;28;20136;-78
2023/02/05 06:14:39;;;;;;;72.32;30.08;;;;;;;6.23;100.00;102860.63;5016626;28;20128;-79
2023/02/05 06:17:06;;;;;;;69.18;31.77;;;;;;;6.20;100.00;102856.44;5017756;28;20128;-77
2023/02/05 06:19:34;;;;;;;68.85;31.48;;;;;;;6.24;100.00;102852.75;5016659;28;20401;-77
2023/02/05 06:22:00;;;;;;;74.00;31.95;;;;;;;6.22;100.00;102845.94;5015493;28;20085;-78
2023/02/05 06:24:27;;;;;;;75.78;31.98;;;;;;;6.24;100.00;102846.72;5010970;28;20607;-78
2023/02/05 06:26:54;;;;;;;74.30;32.85;;;;;;;6.22;100.00;102849.41;5014078;28;20092;-76
2023/02/05 06:29:20;;;;;;;73.07;31.98;;;;;;;6.19;100.00;102838.31;5013951;28;20054;-78
2023/02/05 06:31:47;;;;;;;70.97;32.30;;;;;;;6.16;100.00;102831.50;5015017;28;20049;-77
2023/02/05 06:34:13;;;;;;;79.18;33.63;;;;;;;6.13;100.00;102828.22;5014703;28;20056;-78
2023/02/05 06:36:41;;;;;;;68.70;32.88;;;;;;;6.16;100.00;102831.50;5015354;28;20049;-79
2023/02/05 06:39:08;;;;;;;72.25;33.15;;;;;;;6.22;100.00;102832.97;5014586;28;20049;-78
2023/02/05 06:41:34;;;;;;;69.13;33.67;;;;;;;6.16;100.00;102831.50;5015804;28;20050;-78
2023/02/05 06:44:02;;;;;;;73.53;33.80;;;;;;;6.17;100.00;102829.72;5014357;28;20050;-75
2023/02/05 06:46:29;;;;;;;69.70;31.73;;;;;;;6.17;100.00;102830.56;5014848;28;20496;-78
2023/02/05 06:48:56;;;;;;;73.95;31.30;;;;;;;6.18;100.00;102837.47;5014350;28;20064;-77
2023/02/05 06:51:22;;;;;;;70.28;31.23;;;;;;;6.19;100.00;102838.31;5015733;28;20420;-79
2023/02/05 06:53:51;;;;;;;66.13;31.40;;;;;;;6.20;100.00;102833.03;5015853;28;20060;-78
2023/02/05 06:56:18;;;;;;;60.80;29.95;;;;;;;6.23;100.00;102825.09;5015263;28;20046;-79
2023/02/05 06:58:45;;;;;;;70.13;32.40;;;;;;;6.18;100.00;102819.25;5013839;28;20219;-77
2023/02/05 07:01:12;;;;;;;60.35;30.10;;;;;;;6.15;100.00;102824.59;5013779;28;20476;-78
2023/02/05 07:03:38;;;;;;;59.28;28.55;;;;;;;6.20;100.00;102825.22;5014659;28;20064;-78
2023/02/05 07:06:14;;;;;;;57.65;29.52;;;;;;;6.24;100.00;102820.72;5016532;28;20119;-78
2023/02/05 07:08:55;;;;;;;62.25;29.30;;;;;;;6.18;100.00;102811.47;5018310;28;20049;-79
2023/02/05 07:11:23;;;;;;;63.58;29.58;;;;;;;6.20;100.00;102820.03;5016131;28;20046;-78
2023/02/05 07:14:03;;;;;;;63.92;30.55;;;;;;;6.14;100.00;102819.50;5016963;28;20074;-79
2023/02/05 07:16:29;;;;;;;63.00;29.70;;;;;;;6.13;100.00;102805.69;5013419;28;20088;-79
2023/02/05 07:19:03;;;;;;;58.00;30.17;;;;;;;6.14;100.00;102829.91;5018944;28;20110;-78
2023/02/05 07:21:30;;;;;;;56.72;28.58;;;;;;;6.19;100.00;102826.16;5020046;28;20050;-77
2023/02/05 07:23:57;;;;;;;61.42;27.80;;;;;;;6.21;100.00;102823.47;5015419;28;20170;-78
2023/02/05 07:26:24;;;;;;;55.47;28.13;;;;;;;6.17;100.00;102819.34;5015043;28;20056;-79
2023/02/05 07:29:10;;;;;;;60.20;29.08;;;;;;;6.23;100.00;102812.09;5015611;28;20071;-78
2023/02/05 07:31:37;;;;;;;56.47;29.30;;;;;;;6.30;100.00;102820.44;5014865;28;20057;-78
2023/02/05 07:34:04;;;;;;;57.60;29.85;;;;;;;6.23;100.00;102819.03;5013109;28;20057;-77
2023/02/05 07:36:30;;;;;;;54.25;29.10;;;;;;;6.26;100.00;102819.75;5014351;28;20136;-78
2023/02/05 07:38:58;;;;;;;56.70;29.73;;;;;;;6.26;100.00;102816.28;5012430;28;20049;-79
2023/02/05 07:41:25;;;;;;;58.78;30.50;;;;;;;6.26;100.00;102811.94;5013694;28;20142;-78
2023/02/05 07:43:52;;;;;;;56.83;31.27;;;;;;;6.22;100.00;102818.19;5012474;28;20050;-77
2023/02/05 07:46:20;;;;;;;60.42;31.10;;;;;;;6.25;100.00;102825.00;5013076;28;20129;-78
2023/02/05 07:48:47;;;;;;;55.60;28.85;;;;;;;6.20;100.00;102814.84;5012614;28;20058;-77
2023/02/05 07:51:17;;;;;;;55.35;29.73;;;;;;;6.20;100.00;102814.00;5012271;28;20046;-78
2023/02/05 07:53:44;;;;;;;56.30;30.25;;;;;;;6.26;100.00;102830.13;5013730;28;20054;-77
2023/02/05 07:56:12;;;;;;;55.08;30.27;;;;;;;6.20;100.00;102825.22;5013661;28;20052;-78
2023/02/05 07:58:38;;;;;;;58.72;29.63;;;;;;;6.27;100.00;102828.38;5013751;28;20136;-77
2023/02/05 08:01:05;;;;;;;57.35;30.60;;;;;;;6.21;100.00;102824.31;5021028;28;20098;-77
2023/02/05 08:03:33;;;;;;;61.10;30.60;;;;;;;6.22;100.00;102822.56;5018796;28;20238;-78
2023/02/05 08:06:04;;;;;;;53.20;28.63;;;;;;;6.22;100.00;102828.59;5018565;28;20329;-78
2023/02/05 08:08:31;;;;;;;48.58;27.00;;;;;;;6.23;100.00;102824.25;5017971;28;20137;-79
2023/02/05 08:10:58;;;;;;;52.78;28.55;;;;;;;6.26;100.00;102814.53;5017717;28;20567;-79
2023/02/05 08:13:26;;;;;;;49.95;27.50;;;;;;;6.22;100.00;102815.59;5012745;28;20050;-77
2023/02/05 08:15:53;;;;;;;51.13;28.08;;;;;;;6.26;100.00;102821.50;5012524;28;20049;-77
2023/02/05 08:18:20;;;;;;;51.85;29.08;;;;;;;6.25;100.00;102815.44;5013421;28;20118;-77
2023/02/05 08:20:46;;;;;;;50.20;28.60;;;;;;;6.25;100.00;102812.84;5014534;28;20180;-77
2023/02/05 08:23:13;;;;;;;51.03;29.17;;;;;;;6.26;100.00;102804.13;5014146;28;20134;-77
2023/02/05 08:25:40;;;;;;;50.00;28.98;;;;;;;6.27;100.00;102804.97;5013757;28;20056;-77
2023/02/05 08:28:06;;;;;;;50.67;28.35;;;;;;;6.20;100.00;102812.22;5013667;28;20046;-76
2023/02/05 08:30:34;;;;;;;47.58;28.80;;;;;;;6.19;100.00;102807.09;5014373;28;20196;-78
2023/02/05 08:33:01;;;;;;;49.85;28.40;;;;;;;6.16;100.00;102807.25;5013980;28;20046;-77
2023/02/05 08:35:28;;;;;;;44.33;27.63;;;;;;;6.22;100.00;102810.41;5013254;28;20045;-78
2023/02/05 08:37:54;;;;;;;48.67;26.63;;;;;;;6.18;100.00;102802.81;5010465;28;20114;-78
2023/02/05 08:40:21;;;;;;;50.58;28.52;;;;;;;6.22;100.00;102812.16;5011120;28;20105;-77
2023/02/05 08:42:51;;;;;;;37.03;22.35;;;;;;;6.20;100.00;102814.84;5014432;28;20156;-77
2023/02/05 08:45:18;;;;;;;34.83;20.65;;;;;;;6.15;100.00;102824.59;5012197;28;20054;-78
2023/02/05 08:47:46;;;;;;;30.95;19.80;;;;;;;6.16;100.00;102820.25;5021657;28;20113;-76
2023/02/05 08:50:12;;;;;;;30.30;18.63;;;;;;;6.22;100.00;102818.19;5016546;28;20113;-77
2023/02/05 08:52:39;;;;;;;32.00;19.15;;;;;;;6.17;100.00;102812.38;5015875;28;20049;-76
2023/02/05 08:55:06;;;;;;;31.35;18.05;;;;;;;6.12;100.00;102817.00;5014321;28;20393;-78
2023/02/05 08:57:33;;;;;;;27.73;17.25;;;;;;;6.10;100.00;102829.22;5014247;28;20056;-77
2023/02/05 09:00:00;;;;;;;20.52;11.48;;;;;;;5.97;100.00;102823.75;5013713;28;20145;-76
2023/02/05 09:02:26;;;;;;;11.43;7.78;;;;;;;5.89;100.00;102836.25;5013182;28;20133;-77
2023/02/05 09:04:54;;;;;;;10.23;5.57;;;;;;;5.80;100.00;102830.59;5014167;28;20060;-78
2023/02/05 09:07:21;;;;;;;6.80;4.63;;;;;;;5.78;100.00;102832.44;5014148;28;20049;-77
2023/02/05 09:09:47;;;;;;;6.22;3.35;;;;;;;5.76;100.00;102842.06;5011634;28;20133;-77
2023/02/05 09:12:14;;;;;;;7.20;3.83;;;;;;;5.79;100.00;102847.13;5008773;28;20046;-78
2023/02/05 09:14:41;;;;;;;4.10;2.80;;;;;;;5.76;100.00;102847.25;5014428;28;20056;-78
2023/02/05 09:17:13;;;;;;;4.90;2.75;;;;;;;5.75;100.00;102845.56;5014964;28;20138;-78
2023/02/05 09:19:40;;;;;;;6.38;2.65;;;;;;;5.77;100.00;102851.53;5016938;28;20480;-79
2023/02/05 09:22:09;;;;;;;6.68;2.63;;;;;;;5.80;100.00;102843.59;5016524;28;20129;-79
2023/02/05 09:24:37;;;;;;;5.93;2.13;;;;;;;5.88;100.00;102859.69;5016579;28;20470;-80
2023/02/05 09:27:04;;;;;;;4.00;2.60;;;;;;;5.95;100.00;102863.72;5020914;28;20137;-77
2023/02/05 09:29:31;;;;;;;4.97;2.38;;;;;;;6.02;100.00;102857.31;5019078;28;20050;-78
2023/02/05 09:31:57;;;;;;;7.03;2.22;;;;;;;5.91;100.00;102856.97;5019448;28;20412;-78
2023/02/05 09:34:24;;;;;;;8.40;4.38;;;;;;;5.91;100.00;102862.16;5019468;28;20069;-77
2023/02/05 09:36:51;;;;;;;6.40;2.95;;;;;;;5.87;100.00;102864.03;5020009;28;20050;-78
2023/02/05 09:39:19;;;;;;;6.50;2.88;;;;;;;5.88;100.00;102857.09;5021605;28;20074;-79
2023/02/05 09:41:55;;;;;;;4.50;2.80;;;;;;;5.88;100.00;102877.88;5022188;28;20069;-78
2023/02/05 09:44:43;;;;;;;6.15;2.53;;;;;;;5.84;100.00;102873.72;5020170;28;20061;-79
2023/02/05 09:47:17;;;;;;;4.75;2.25;;;;;;;5.86;100.00;102872.75;5024079;28;20058;-78
2023/02/05 09:49:48;;;;;;;7.18;2.47;;;;;;;5.96;100.00;102884.44;5021676;28;20136;-78
2023/02/05 09:52:19;;;;;;;5.95;2.53;;;;;;;5.99;100.00;102893.84;5021337;28;20037;-77
2023/02/05 09:54:52;;;;;;;7.57;3.08;;;;;;;5.94;100.00;102882.81;5021818;28;20089;-77
2023/02/05 09:57:29;;;;;;;9.25;3.78;;;;;;;5.87;100.00;102890.03;5018307;28;20141;-77
2023/02/05 09:59:56;;;;;;;8.00;3.38;;;;;;;5.84;100.00;102882.38;5020969;28;20046;-77
2023/02/05 10:02:28;;;;;;;10.40;3.38;;;;;;;5.93;100.00;102896.72;5018204;28;20102;-78
2023/02/05 10:04:55;;;;;;;14.95;3.97;;;;;;;5.96;100.00;102905.22;5015203;28;20093;-80
2023/02/05 10:07:30;;;;;;;6.55;2.80;;;;;;;5.97;100.00;102901.72;5016667;28;20056;-81
2023/02/05 10:10:17;;;;;;;11.35;3.08;;;;;;;5.97;100.00;102901.72;5016980;28;20119;-78
2023/02/05 10:13:02;;;;;;;7.28;3.47;;;;;;;5.92;100.00;102892.44;5015962;28;20082;-78
2023/02/05 10:15:46;;;;;;;11.15;2.85;;;;;;;5.98;100.00;102893.00;5017389;28;20077;-78
2023/02/05 10:18:22;;;;;;;7.07;2.90;;;;;;;5.91;100.00;102894.19;5013160;28;20057;-79
2023/02/05 10:20:58;;;;;;;13.15;3.78;;;;;;;5.90;100.00;102902.91;5019561;28;20168;-79
2023/02/05 10:23:40;;;;;;;12.70;3.65;;;;;;;5.91;100.00;102896.78;5017279;28;20053;-77
2023/02/05 10:26:12;;;;;;;8.38;3.25;;;;;;;5.94;100.00;102890.63;5011364;28;20108;-79
2023/02/05 10:29:14;;;;;;;10.38;4.00;;;;;;;5.97;100.00;102903.47;5021858;28;20058;-78
2023/02/05 10:31:43;;;;;;;14.82;3.97;;;;;;;6.01;100.00;102897.22;5018299;28;20109;-79
2023/02/05 10:34:35;;;;;;;8.25;3.38;;;;;;;5.98;100.00;102897.34;5021356;28;20531;-78
2023/02/05 10:37:05;;;;;;;9.60;3.90;;;;;;;6.01;100.00;102881.63;5020519;28;20112;-79
2023/02/05 10:39:32;;;;;;;9.57;3.58;;;;;;;5.96;100.00;102894.00;5022424;28;20110;-79
2023/02/05 10:42:06;;;;;;;11.50;3.80;;;;;;;6.05;100.00;102887.53;5020345;28;20108;-80
2023/02/05 10:44:37;;;;;;;9.57;3.22;;;;;;;6.16;100.00;102891.28;5018478;28;20109;-78
2023/02/05 10:47:10;;;;;;;17.60;3.90;;;;;;;6.14;100.00;102882.75;5017828;28;20133;-78
2023/02/05 10:49:46;;;;;;;9.95;3.40;;;;;;;6.22;100.00;102888.41;5017273;28;20072;-78
2023/02/05 10:52:15;;;;;;;7.40;2.92;;;;;;;6.31;100.00;102872.34;5016186;28;20109;-77
2023/02/05 10:54:42;;;;;;;11.88;3.45;;;;;;;6.23;100.00;102881.44;5015698;28;20105;-78
2023/02/05 10:57:16;;;;;;;11.38;3.15;;;;;;;6.10;100.00;102868.19;5017070;28;20077;-79
2023/02/05 10:59:51;;;;;;;13.95;3.13;;;;;;;6.17;100.00;102869.56;5017676;28;20056;-80
2023/02/05 11:02:18;;;;;;;9.48;2.70;;;;;;;6.20;100.00;102876.38;5017623;28;20129;-78
2023/02/05 11:04:48;;;;;;;12.90;3.50;;;;;;;6.14;100.00;102881.91;5019338;28;20081;-79
2023/02/05 11:07:23;;;;;;;11.30;4.10;;;;;;;6.18;100.00;102878.22;5022296;28;20138;-79
2023/02/05 11:09:50;;;;;;;12.30;3.88;;;;;;;6.20;100.00;102872.03;5023387;28;20093;-80
2023/02/05 11:12:26;;;;;;;13.30;3.90;;;;;;;6.21;100.00;102875.47;5030546;28;20074;-80
2023/02/05 11:14:57;;;;;;;11.85;3.42;;;;;;;6.28;100.00;102867.31;5014085;28;20392;-79
2023/02/05 11:17:28;;;;;;;10.90;4.05;;;;;;;6.22;100.00;102859.78;5019318;28;20054;-78
2023/02/05 11:19:56;;;;;;;15.13;5.75;;;;;;;6.28;100.00;102867.31;5015369;28;20050;-77
2023/02/05 11:22:27;;;;;;;9.52;3.60;;;;;;;6.18;100.00;102863.44;5017531;28;20089;-79
2023/02/05 11:25:05;;;;;;;11.73;3.25;;;;;;;6.19;100.00;102865.13;5015674;28;20129;-77
2023/02/05 11:27:34;;;;;;;10.95;3.40;;;;;;;6.25;100.00;102859.66;5015443;28;20050;-78